createdAt,value
2018-07-22T00:00:31.631Z,0
2018-07-22T00:01:33.634Z,0
2018-07-22T00:02:35.648Z,0
2018-07-22T00:03:38.030Z,0
2018-07-22T00:04:40.035Z,0
2018-07-22T00:05:42.036Z,0
2018-07-22T00:06:44.347Z,0
2018-07-22T00:07:46.314Z,0
2018-07-22T00:08:48.318Z,0
2018-07-22T00:09:50.315Z,0
2018-07-22T00:10:52.315Z,0
2018-07-22T00:11:54.325Z,0
2018-07-22T00:12:56.329Z,0
2018-07-22T00:13:58.392Z,0
2018-07-22T00:15:00.341Z,0
2018-07-22T00:16:02.617Z,0
2018-07-22T00:17:04.900Z,0
2018-07-22T00:18:07.206Z,0
2018-07-22T00:19:09.195Z,0
2018-07-22T00:20:11.587Z,0
2018-07-22T00:21:13.591Z,0
2018-07-22T00:22:15.886Z,0
2018-07-22T00:23:17.907Z,0
2018-07-22T00:24:19.910Z,0
2018-07-22T00:25:22.300Z,0
2018-07-22T00:26:24.294Z,0
2018-07-22T00:27:26.304Z,0
2018-07-22T00:28:28.300Z,0
2018-07-22T00:29:30.297Z,0
2018-07-22T00:30:32.298Z,0
2018-07-22T00:31:34.292Z,0
2018-07-22T00:32:36.299Z,0
2018-07-22T00:33:38.300Z,0
2018-07-22T00:34:40.303Z,0
2018-07-22T00:35:42.291Z,0
2018-07-22T00:36:44.300Z,0
2018-07-22T00:37:46.304Z,0
2018-07-22T00:38:48.305Z,0
2018-07-22T00:39:50.702Z,0
2018-07-22T00:40:52.699Z,0
2018-07-22T00:41:54.699Z,0
2018-07-22T00:42:57.088Z,0
2018-07-22T00:43:59.089Z,0
2018-07-22T00:45:01.366Z,0
2018-07-22T00:46:03.752Z,0
2018-07-22T00:47:06.322Z,0
2018-07-22T00:48:08.320Z,0
2018-07-22T00:49:10.318Z,0
2018-07-22T00:50:12.890Z,0
2018-07-22T00:51:15.278Z,0
2018-07-22T00:52:17.273Z,0
2018-07-22T00:53:19.277Z,0
2018-07-22T00:54:21.280Z,0
2018-07-22T00:55:23.283Z,0
2018-07-22T00:56:26.153Z,0
2018-07-22T00:57:28.154Z,0
2018-07-22T00:58:30.545Z,0
2018-07-22T00:59:32.539Z,0
2018-07-22T01:00:34.556Z,0
2018-07-22T01:01:36.552Z,0
2018-07-22T01:02:38.556Z,0
2018-07-22T01:03:40.562Z,0
2018-07-22T01:04:42.555Z,0
2018-07-22T01:05:44.566Z,0
2018-07-22T01:06:46.568Z,0
2018-07-22T01:07:48.853Z,0
2018-07-22T01:08:50.840Z,0
2018-07-22T01:09:53.134Z,0
2018-07-22T01:10:55.136Z,0
2018-07-22T01:11:57.139Z,0
2018-07-22T01:12:59.739Z,0
2018-07-22T01:14:01.741Z,0
2018-07-22T01:15:03.739Z,0
2018-07-22T01:16:05.744Z,0
2018-07-22T01:17:07.748Z,0
2018-07-22T01:18:09.742Z,0
2018-07-22T01:19:11.745Z,0
2018-07-22T01:20:14.028Z,0
2018-07-22T01:21:16.024Z,0
2018-07-22T01:22:18.415Z,0
2018-07-22T01:23:20.418Z,0
2018-07-22T01:24:22.704Z,0
2018-07-22T01:25:24.698Z,0
2018-07-22T01:26:26.700Z,0
2018-07-22T01:27:28.698Z,0
2018-07-22T01:28:30.693Z,0
2018-07-22T01:29:32.992Z,0
2018-07-22T01:30:34.995Z,0
2018-07-22T01:31:37.765Z,0
2018-07-22T01:32:39.761Z,0
2018-07-22T01:33:41.773Z,0
2018-07-22T01:34:43.769Z,0
2018-07-22T01:35:46.155Z,0
2018-07-22T01:36:48.163Z,0
2018-07-22T01:37:50.154Z,0
2018-07-22T01:38:52.441Z,0
2018-07-22T01:39:54.437Z,0
2018-07-22T01:40:56.441Z,0
2018-07-22T01:41:58.433Z,0
2018-07-22T01:43:00.442Z,0
2018-07-22T01:44:02.444Z,0
2018-07-22T01:45:04.445Z,0
2018-07-22T01:46:06.456Z,0
2018-07-22T01:47:09.115Z,0
2018-07-22T01:48:11.115Z,0
2018-07-22T01:49:13.124Z,0
2018-07-22T01:50:15.122Z,0
2018-07-22T01:51:17.114Z,0
2018-07-22T01:52:19.121Z,0
2018-07-22T01:53:21.109Z,0
2018-07-22T01:54:23.110Z,0
2018-07-22T01:55:25.115Z,0
2018-07-22T01:56:27.117Z,0
2018-07-22T01:57:29.113Z,0
2018-07-22T01:58:31.126Z,0
2018-07-22T01:59:33.126Z,0
2018-07-22T02:00:35.127Z,0
2018-07-22T02:01:37.244Z,0
2018-07-22T02:02:39.418Z,0
2018-07-22T02:03:41.422Z,0
2018-07-22T02:04:43.423Z,0
2018-07-22T02:05:45.416Z,0
2018-07-22T02:06:47.707Z,0
2018-07-22T02:07:49.699Z,0
2018-07-22T02:08:51.993Z,0
2018-07-22T02:09:54.277Z,0
2018-07-22T02:10:56.268Z,0
2018-07-22T02:11:58.273Z,0
2018-07-22T02:13:00.273Z,0
2018-07-22T02:14:02.275Z,0
2018-07-22T02:15:04.653Z,0
2018-07-22T02:16:06.662Z,0
2018-07-22T02:17:08.941Z,0
2018-07-22T02:18:10.944Z,0
2018-07-22T02:19:12.953Z,0
2018-07-22T02:20:14.952Z,0
2018-07-22T02:21:17.335Z,0
2018-07-22T02:22:19.346Z,0
2018-07-22T02:23:21.642Z,0
2018-07-22T02:24:23.635Z,0
2018-07-22T02:25:25.636Z,0
2018-07-22T02:26:27.627Z,0
2018-07-22T02:27:29.626Z,0
2018-07-22T02:28:31.912Z,0
2018-07-22T02:29:33.912Z,0
2018-07-22T02:30:35.907Z,0
2018-07-22T02:31:38.197Z,0
2018-07-22T02:32:40.587Z,0
2018-07-22T02:33:42.871Z,0
2018-07-22T02:34:44.876Z,0
2018-07-22T02:35:47.164Z,0
2018-07-22T02:36:49.453Z,0
2018-07-22T02:37:51.461Z,0
2018-07-22T02:38:54.313Z,0
2018-07-22T02:39:56.584Z,0
2018-07-22T02:40:58.977Z,0
2018-07-22T02:42:01.261Z,0
2018-07-22T02:43:04.141Z,0
2018-07-22T02:44:06.130Z,0
2018-07-22T02:45:08.425Z,0
2018-07-22T02:46:10.426Z,0
2018-07-22T02:47:12.812Z,0
2018-07-22T02:48:15.398Z,0
2018-07-22T02:49:18.235Z,0
2018-07-22T02:50:20.238Z,0
2018-07-22T02:51:22.269Z,0
2018-07-22T02:52:24.505Z,0
2018-07-22T02:53:26.799Z,0
2018-07-22T02:54:29.075Z,0
2018-07-22T02:55:31.074Z,0
2018-07-22T02:56:33.073Z,0
2018-07-22T02:57:35.078Z,0
2018-07-22T02:58:37.645Z,0
2018-07-22T02:59:40.037Z,0
2018-07-22T03:00:42.039Z,0
2018-07-22T03:01:44.034Z,0
2018-07-22T03:02:46.036Z,0
2018-07-22T03:03:48.608Z,0
2018-07-22T03:04:50.993Z,0
2018-07-22T03:05:52.987Z,0
2018-07-22T03:06:55.941Z,0
2018-07-22T03:07:58.218Z,0
2018-07-22T03:09:00.512Z,0
2018-07-22T03:10:02.804Z,0
2018-07-22T03:11:04.804Z,0
2018-07-22T03:12:07.471Z,0
2018-07-22T03:13:09.484Z,0
2018-07-22T03:14:11.764Z,0
2018-07-22T03:15:13.769Z,0
2018-07-22T03:16:16.353Z,0
2018-07-22T03:17:18.635Z,0
2018-07-22T03:18:20.911Z,0
2018-07-22T03:19:22.909Z,0
2018-07-22T03:20:25.191Z,0
2018-07-22T03:21:27.202Z,0
2018-07-22T03:22:29.767Z,0
2018-07-22T03:23:32.714Z,1
2018-07-22T03:24:34.720Z,1
2018-07-22T03:25:36.991Z,1
2018-07-22T03:26:38.997Z,1
2018-07-22T03:27:41.384Z,1
2018-07-22T03:28:43.380Z,1
2018-07-22T03:29:45.660Z,1
2018-07-22T03:30:48.347Z,1
2018-07-22T03:31:50.632Z,1
2018-07-22T03:32:52.639Z,1
2018-07-22T03:33:55.024Z,1
2018-07-22T03:34:57.021Z,2
2018-07-22T03:35:59.021Z,2
2018-07-22T03:37:01.030Z,2
2018-07-22T03:38:03.019Z,3
2018-07-22T03:39:05.021Z,3
2018-07-22T03:40:07.022Z,3
2018-07-22T03:41:09.300Z,4
2018-07-22T03:42:11.310Z,4
2018-07-22T03:43:13.359Z,4
2018-07-22T03:44:15.318Z,4
2018-07-22T03:45:17.702Z,4
2018-07-22T03:46:19.712Z,4
2018-07-22T03:47:21.712Z,4
2018-07-22T03:48:23.706Z,5
2018-07-22T03:49:25.750Z,5
2018-07-22T03:50:27.707Z,5
2018-07-22T03:51:29.714Z,5
2018-07-22T03:52:31.715Z,5
2018-07-22T03:53:33.724Z,6
2018-07-22T03:54:35.721Z,6
2018-07-22T03:55:37.715Z,6
2018-07-22T03:56:39.715Z,6
2018-07-22T03:57:42.003Z,6
2018-07-22T03:58:43.989Z,7
2018-07-22T03:59:45.993Z,7
2018-07-22T04:00:47.993Z,7
2018-07-22T04:01:49.989Z,7
2018-07-22T04:02:52.272Z,7
2018-07-22T04:03:54.662Z,7
2018-07-22T04:04:56.660Z,7
2018-07-22T04:05:58.669Z,7
2018-07-22T04:07:00.711Z,8
2018-07-22T04:08:02.661Z,8
2018-07-22T04:09:04.663Z,8
2018-07-22T04:10:06.954Z,8
2018-07-22T04:11:08.943Z,8
2018-07-22T04:12:10.945Z,9
2018-07-22T04:13:12.948Z,9
2018-07-22T04:14:14.942Z,9
2018-07-22T04:15:16.952Z,10
2018-07-22T04:16:18.955Z,10
2018-07-22T04:17:21.723Z,11
2018-07-22T04:18:23.719Z,11
2018-07-22T04:19:25.730Z,11
2018-07-22T04:20:27.728Z,11
2018-07-22T04:21:29.801Z,11
2018-07-22T04:22:31.734Z,10
2018-07-22T04:23:33.722Z,10
2018-07-22T04:24:35.730Z,10
2018-07-22T04:25:37.732Z,9
2018-07-22T04:26:39.736Z,9
2018-07-22T04:27:41.725Z,9
2018-07-22T04:28:44.412Z,9
2018-07-22T04:29:46.410Z,9
2018-07-22T04:30:48.411Z,9
2018-07-22T04:31:50.420Z,8
2018-07-22T04:32:52.421Z,8
2018-07-22T04:33:54.422Z,8
2018-07-22T04:34:56.416Z,8
2018-07-22T04:35:58.416Z,8
2018-07-22T04:37:00.705Z,8
2018-07-22T04:38:02.705Z,8
2018-07-22T04:39:04.713Z,8
2018-07-22T04:40:06.713Z,8
2018-07-22T04:41:08.709Z,8
2018-07-22T04:42:10.705Z,8
2018-07-22T04:43:12.708Z,8
2018-07-22T04:44:14.702Z,9
2018-07-22T04:45:16.698Z,9
2018-07-22T04:46:18.696Z,9
2018-07-22T04:47:20.690Z,9
2018-07-22T04:48:22.702Z,10
2018-07-22T04:49:24.705Z,10
2018-07-22T04:50:26.702Z,10
2018-07-22T04:51:28.699Z,11
2018-07-22T04:52:30.709Z,12
2018-07-22T04:53:33.115Z,13
2018-07-22T04:54:35.426Z,14
2018-07-22T04:55:37.431Z,15
2018-07-22T04:56:39.703Z,16
2018-07-22T04:57:41.708Z,16
2018-07-22T04:58:43.710Z,16
2018-07-22T04:59:45.718Z,16
2018-07-22T05:00:47.999Z,16
2018-07-22T05:01:51.054Z,15
2018-07-22T05:02:53.339Z,15
2018-07-22T05:03:55.340Z,16
2018-07-22T05:04:57.351Z,16
2018-07-22T05:05:59.349Z,16
2018-07-22T05:07:01.350Z,17
2018-07-22T05:08:03.359Z,17
2018-07-22T05:09:05.642Z,17
2018-07-22T05:10:07.637Z,18
2018-07-22T05:11:10.022Z,18
2018-07-22T05:12:12.297Z,18
2018-07-22T05:13:14.298Z,19
2018-07-22T05:14:16.302Z,19
2018-07-22T05:15:18.863Z,20
2018-07-22T05:16:21.239Z,22
2018-07-22T05:17:23.534Z,24
2018-07-22T05:18:25.534Z,25
2018-07-22T05:19:27.817Z,26
2018-07-22T05:20:30.103Z,28
2018-07-22T05:21:32.090Z,30
2018-07-22T05:22:34.093Z,32
2018-07-22T05:23:36.382Z,34
2018-07-22T05:24:38.385Z,36
2018-07-22T05:25:40.654Z,37
2018-07-22T05:26:42.662Z,38
2018-07-22T05:27:44.662Z,39
2018-07-22T05:28:46.659Z,39
2018-07-22T05:29:48.971Z,40
2018-07-22T05:30:51.248Z,41
2018-07-22T05:31:53.252Z,41
2018-07-22T05:32:55.250Z,42
2018-07-22T05:33:57.257Z,42
2018-07-22T05:34:59.255Z,43
2018-07-22T05:36:01.278Z,44
2018-07-22T05:37:03.590Z,44
2018-07-22T05:38:05.578Z,46
2018-07-22T05:39:07.586Z,46
2018-07-22T05:40:09.589Z,46
2018-07-22T05:41:11.582Z,47
2018-07-22T05:42:13.653Z,48
2018-07-22T05:43:15.592Z,50
2018-07-22T05:44:17.595Z,50
2018-07-22T05:45:19.984Z,51
2018-07-22T05:46:21.984Z,52
2018-07-22T05:47:24.262Z,52
2018-07-22T05:48:26.262Z,53
2018-07-22T05:49:28.265Z,54
2018-07-22T05:50:30.276Z,54
2018-07-22T05:51:32.558Z,52
2018-07-22T05:52:34.562Z,51
2018-07-22T05:53:36.957Z,50
2018-07-22T05:54:38.948Z,49
2018-07-22T05:55:40.948Z,47
2018-07-22T05:56:42.948Z,47
2018-07-22T05:57:44.955Z,46
2018-07-22T05:58:46.942Z,46
2018-07-22T05:59:48.946Z,46
2018-07-22T06:00:50.946Z,46
2018-07-22T06:01:52.941Z,47
2018-07-22T06:02:55.338Z,47
2018-07-22T06:03:57.335Z,48
2018-07-22T06:04:59.343Z,48
2018-07-22T06:06:02.029Z,48
2018-07-22T06:07:04.039Z,48
2018-07-22T06:08:06.032Z,49
2018-07-22T06:09:08.032Z,49
2018-07-22T06:10:10.315Z,50
2018-07-22T06:11:12.304Z,50
2018-07-22T06:12:14.732Z,50
2018-07-22T06:13:16.737Z,51
2018-07-22T06:14:18.732Z,51
2018-07-22T06:15:20.740Z,52
2018-07-22T06:16:22.747Z,52
2018-07-22T06:17:24.748Z,52
2018-07-22T06:18:26.754Z,53
2018-07-22T06:19:28.760Z,54
2018-07-22T06:20:30.759Z,56
2018-07-22T06:21:32.759Z,55
2018-07-22T06:22:34.766Z,56
2018-07-22T06:23:36.759Z,56
2018-07-22T06:24:38.761Z,57
2018-07-22T06:25:40.769Z,57
2018-07-22T06:26:42.768Z,58
2018-07-22T06:27:45.707Z,59
2018-07-22T06:28:47.991Z,59
2018-07-22T06:29:49.996Z,59
2018-07-22T06:30:52.003Z,60
2018-07-22T06:31:54.379Z,60
2018-07-22T06:32:56.390Z,60
2018-07-22T06:33:58.396Z,60
2018-07-22T06:35:00.391Z,60
2018-07-22T06:36:02.406Z,59
2018-07-22T06:37:04.405Z,59
2018-07-22T06:38:06.696Z,60
2018-07-22T06:39:09.001Z,60
2018-07-22T06:40:11.009Z,60
2018-07-22T06:41:13.411Z,61
2018-07-22T06:42:15.383Z,59
2018-07-22T06:43:17.775Z,58
2018-07-22T06:44:19.768Z,58
2018-07-22T06:45:22.161Z,57
2018-07-22T06:46:24.163Z,56
2018-07-22T06:47:26.163Z,55
2018-07-22T06:48:28.166Z,55
2018-07-22T06:49:30.175Z,55
2018-07-22T06:50:32.177Z,54
2018-07-22T06:51:34.186Z,54
2018-07-22T06:52:36.194Z,54
2018-07-22T06:53:38.287Z,54
2018-07-22T06:54:40.190Z,54
2018-07-22T06:55:42.482Z,56
2018-07-22T06:56:44.771Z,56
2018-07-22T06:57:46.773Z,58
2018-07-22T06:58:48.777Z,59
2018-07-22T06:59:50.776Z,60
2018-07-22T07:00:52.803Z,62
2018-07-22T07:01:54.791Z,63
2018-07-22T07:02:57.080Z,64
2018-07-22T07:03:59.077Z,65
2018-07-22T07:05:01.437Z,66
2018-07-22T07:06:03.407Z,66
2018-07-22T07:07:05.407Z,66
2018-07-22T07:08:07.403Z,67
2018-07-22T07:09:09.413Z,67
2018-07-22T07:10:11.411Z,68
2018-07-22T07:11:13.417Z,68
2018-07-22T07:12:15.419Z,68
2018-07-22T07:13:17.432Z,69
2018-07-22T07:14:19.428Z,69
2018-07-22T07:15:21.431Z,70
2018-07-22T07:16:23.818Z,71
2018-07-22T07:17:26.193Z,71
2018-07-22T07:18:28.204Z,72
2018-07-22T07:19:30.209Z,74
2018-07-22T07:20:32.207Z,75
2018-07-22T07:21:34.494Z,77
2018-07-22T07:22:36.505Z,77
2018-07-22T07:23:38.798Z,79
2018-07-22T07:24:40.806Z,79
2018-07-22T07:25:42.811Z,78
2018-07-22T07:26:44.858Z,78
2018-07-22T07:27:46.818Z,78
2018-07-22T07:28:49.110Z,74
2018-07-22T07:29:51.488Z,73
2018-07-22T07:30:53.488Z,71
2018-07-22T07:31:55.499Z,70
2018-07-22T07:32:57.494Z,70
2018-07-22T07:33:59.507Z,70
2018-07-22T07:35:01.510Z,70
2018-07-22T07:36:03.517Z,75
2018-07-22T07:37:06.181Z,76
2018-07-22T07:38:08.589Z,79
2018-07-22T07:39:10.581Z,79
2018-07-22T07:40:12.975Z,80
2018-07-22T07:41:14.984Z,81
2018-07-22T07:42:17.027Z,83
2018-07-22T07:43:18.992Z,83
2018-07-22T07:44:20.996Z,83
2018-07-22T07:45:23.001Z,84
2018-07-22T07:46:24.995Z,85
2018-07-22T07:47:27.301Z,85
2018-07-22T07:48:29.611Z,86
2018-07-22T07:49:31.617Z,88
2018-07-22T07:50:33.635Z,89
2018-07-22T07:51:35.639Z,89
2018-07-22T07:52:37.643Z,90
2018-07-22T07:53:39.654Z,91
2018-07-22T07:54:42.045Z,91
2018-07-22T07:55:44.045Z,92
2018-07-22T07:56:46.051Z,93
2018-07-22T07:57:48.335Z,94
2018-07-22T07:58:50.618Z,93
2018-07-22T07:59:52.629Z,92
2018-07-22T08:00:54.633Z,91
2018-07-22T08:01:56.636Z,90
2018-07-22T08:02:58.658Z,90
2018-07-22T08:04:00.942Z,91
2018-07-22T08:05:02.952Z,92
2018-07-22T08:06:04.960Z,92
2018-07-22T08:07:06.960Z,92
2018-07-22T08:08:09.346Z,92
2018-07-22T08:09:11.352Z,93
2018-07-22T08:10:13.644Z,93
2018-07-22T08:11:15.641Z,94
2018-07-22T08:12:17.652Z,94
2018-07-22T08:13:19.956Z,94
2018-07-22T08:14:21.956Z,95
2018-07-22T08:15:23.976Z,95
2018-07-22T08:16:25.977Z,96
2018-07-22T08:17:28.269Z,96
2018-07-22T08:18:30.659Z,97
2018-07-22T08:19:33.064Z,97
2018-07-22T08:20:35.073Z,98
2018-07-22T08:21:37.148Z,99
2018-07-22T08:22:39.367Z,99
2018-07-22T08:23:41.382Z,99
2018-07-22T08:24:43.381Z,100
2018-07-22T08:25:45.391Z,101
2018-07-22T08:26:47.405Z,102
2018-07-22T08:27:49.410Z,104
2018-07-22T08:28:51.408Z,110
2018-07-22T08:29:53.412Z,132
2018-07-22T08:30:55.416Z,138
2018-07-22T08:31:57.426Z,137
2018-07-22T08:33:00.121Z,140
2018-07-22T08:34:02.128Z,143
2018-07-22T08:35:04.792Z,151
2018-07-22T08:36:06.806Z,159
2018-07-22T08:37:08.810Z,159
2018-07-22T08:38:10.817Z,140
2018-07-22T08:39:12.829Z,136
2018-07-22T08:40:14.826Z,138
2018-07-22T08:41:16.873Z,143
2018-07-22T08:42:19.223Z,134
2018-07-22T08:43:21.233Z,118
2018-07-22T08:44:23.229Z,113
2018-07-22T08:45:25.240Z,126
2018-07-22T08:46:27.247Z,111
2018-07-22T08:47:29.282Z,114
2018-07-22T08:48:31.265Z,116
2018-07-22T08:49:33.270Z,117
2018-07-22T08:50:35.555Z,121
2018-07-22T08:51:37.843Z,132
2018-07-22T08:52:39.860Z,178
2018-07-22T08:53:41.861Z,205
2018-07-22T08:54:43.868Z,234
2018-07-22T08:55:45.875Z,213
2018-07-22T08:56:47.876Z,219
2018-07-22T08:57:50.173Z,217
2018-07-22T08:58:52.186Z,226
2018-07-22T08:59:54.187Z,216
2018-07-22T09:00:56.478Z,164
2018-07-22T09:01:58.772Z,172
2018-07-22T09:03:00.785Z,247
2018-07-22T09:04:02.798Z,279
2018-07-22T09:05:05.086Z,293
2018-07-22T09:06:07.090Z,292
2018-07-22T09:07:09.383Z,296
2018-07-22T09:08:11.402Z,312
2018-07-22T09:09:13.676Z,304
2018-07-22T09:10:16.071Z,304
2018-07-22T09:11:18.077Z,314
2018-07-22T09:12:20.360Z,328
2018-07-22T09:13:22.381Z,315
2018-07-22T09:14:24.386Z,307
2018-07-22T09:15:26.410Z,340
2018-07-22T09:16:28.695Z,340
2018-07-22T09:17:30.714Z,341
2018-07-22T09:18:32.718Z,330
2018-07-22T09:19:34.730Z,310
2018-07-22T09:20:36.741Z,315
2018-07-22T09:21:39.402Z,321
2018-07-22T09:22:41.423Z,316
2018-07-22T09:23:43.435Z,291
2018-07-22T09:24:45.451Z,303
2018-07-22T09:25:47.748Z,257
2018-07-22T09:26:50.149Z,294
2018-07-22T09:27:52.157Z,297
2018-07-22T09:28:54.170Z,302
2018-07-22T09:29:56.189Z,304
2018-07-22T09:30:58.199Z,300
2018-07-22T09:32:00.208Z,291
2018-07-22T09:33:02.222Z,282
2018-07-22T09:34:04.236Z,322
2018-07-22T09:35:06.239Z,335
2018-07-22T09:36:08.393Z,326
2018-07-22T09:37:10.270Z,327
2018-07-22T09:38:12.282Z,319
2018-07-22T09:39:14.290Z,305
2018-07-22T09:40:16.303Z,306
2018-07-22T09:41:18.320Z,297
2018-07-22T09:42:20.324Z,281
2018-07-22T09:43:22.334Z,273
2018-07-22T09:44:24.349Z,337
2018-07-22T09:45:26.360Z,307
2018-07-22T09:46:28.382Z,318
2018-07-22T09:47:30.689Z,283
2018-07-22T09:48:32.706Z,251
2018-07-22T09:49:34.708Z,264
2018-07-22T09:50:36.737Z,278
2018-07-22T09:51:39.030Z,248
2018-07-22T09:52:41.040Z,295
2018-07-22T09:53:43.822Z,386
2018-07-22T09:54:46.086Z,416
2018-07-22T09:55:48.100Z,425
2018-07-22T09:56:50.779Z,404
2018-07-22T09:57:52.791Z,390
2018-07-22T09:58:55.073Z,364
2018-07-22T09:59:57.093Z,345
2018-07-22T10:00:59.104Z,405
2018-07-22T10:02:01.116Z,357
2018-07-22T10:03:03.142Z,402
2018-07-22T10:04:05.428Z,417
2018-07-22T10:05:07.731Z,382
2018-07-22T10:06:09.753Z,376
2018-07-22T10:07:11.773Z,270
2018-07-22T10:08:14.363Z,262
2018-07-22T10:09:16.375Z,273
2018-07-22T10:10:19.152Z,300
2018-07-22T10:11:21.165Z,320
2018-07-22T10:12:23.473Z,411
2018-07-22T10:13:25.769Z,410
2018-07-22T10:14:28.235Z,406
2018-07-22T10:15:30.241Z,419
2018-07-22T10:16:32.538Z,436
2018-07-22T10:17:34.564Z,400
2018-07-22T10:18:36.573Z,352
2018-07-22T10:19:38.575Z,317
2018-07-22T10:20:40.979Z,286
2018-07-22T10:21:43.691Z,326
2018-07-22T10:22:45.711Z,277
2018-07-22T10:23:47.717Z,211
2018-07-22T10:24:49.731Z,186
2018-07-22T10:25:51.747Z,170
2018-07-22T10:26:53.755Z,153
2018-07-22T10:27:55.780Z,144
2018-07-22T10:28:57.788Z,140
2018-07-22T10:29:59.804Z,141
2018-07-22T10:31:01.818Z,145
2018-07-22T10:32:03.842Z,155
2018-07-22T10:33:06.237Z,164
2018-07-22T10:34:08.252Z,185
2018-07-22T10:35:10.269Z,191
2018-07-22T10:36:12.275Z,196
2018-07-22T10:37:14.296Z,196
2018-07-22T10:38:17.814Z,192
2018-07-22T10:39:20.121Z,201
2018-07-22T10:40:22.136Z,177
2018-07-22T10:41:24.161Z,197
2018-07-22T10:42:26.177Z,194
2018-07-22T10:43:28.204Z,214
2018-07-22T10:44:30.213Z,229
2018-07-22T10:45:32.227Z,229
2018-07-22T10:46:34.251Z,219
2018-07-22T10:47:36.268Z,204
2018-07-22T10:48:38.658Z,366
2018-07-22T10:49:40.676Z,281
2018-07-22T10:50:42.972Z,403
2018-07-22T10:51:44.994Z,362
2018-07-22T10:52:47.275Z,353
2018-07-22T10:53:49.293Z,317
2018-07-22T10:54:51.310Z,281
2018-07-22T10:55:53.331Z,327
2018-07-22T10:56:55.336Z,246
2018-07-22T10:57:57.361Z,213
2018-07-22T10:58:59.375Z,206
2018-07-22T11:00:01.381Z,198
2018-07-22T11:01:03.406Z,213
2018-07-22T11:02:05.416Z,270
2018-07-22T11:03:07.715Z,409
2018-07-22T11:04:09.729Z,413
2018-07-22T11:05:11.756Z,354
2018-07-22T11:06:13.767Z,290
2018-07-22T11:07:16.067Z,202
2018-07-22T11:08:18.085Z,233
2018-07-22T11:09:20.093Z,227
2018-07-22T11:10:22.115Z,229
2018-07-22T11:11:24.127Z,225
2018-07-22T11:12:26.135Z,238
2018-07-22T11:13:28.154Z,345
2018-07-22T11:14:30.237Z,357
2018-07-22T11:15:32.617Z,247
2018-07-22T11:16:34.641Z,394
2018-07-22T11:17:36.660Z,377
2018-07-22T11:18:38.672Z,366
2018-07-22T11:19:40.689Z,392
2018-07-22T11:20:42.711Z,378
2018-07-22T11:21:44.715Z,327
2018-07-22T11:22:46.734Z,210
2018-07-22T11:23:48.752Z,393
2018-07-22T11:24:51.145Z,394
2018-07-22T11:25:53.167Z,392
2018-07-22T11:26:55.186Z,398
2018-07-22T11:27:57.201Z,411
2018-07-22T11:28:59.614Z,401
2018-07-22T11:30:02.220Z,429
2018-07-22T11:31:04.240Z,438
2018-07-22T11:32:06.258Z,404
2018-07-22T11:33:08.276Z,391
2018-07-22T11:34:10.304Z,380
2018-07-22T11:35:12.312Z,403
2018-07-22T11:36:14.336Z,419
2018-07-22T11:37:16.353Z,414
2018-07-22T11:38:18.383Z,409
2018-07-22T11:39:20.399Z,424
2018-07-22T11:40:22.713Z,423
2018-07-22T11:41:24.733Z,394
2018-07-22T11:42:27.123Z,362
2018-07-22T11:43:29.148Z,411
2018-07-22T11:44:31.164Z,358
2018-07-22T11:45:33.176Z,429
2018-07-22T11:46:35.194Z,336
2018-07-22T11:47:37.218Z,366
2018-07-22T11:48:39.236Z,319
2018-07-22T11:49:41.264Z,404
2018-07-22T11:50:43.412Z,404
2018-07-22T11:51:45.964Z,409
2018-07-22T11:52:47.986Z,431
2018-07-22T11:53:50.012Z,429
2018-07-22T11:54:52.022Z,404
2018-07-22T11:55:54.427Z,398
2018-07-22T11:56:56.446Z,417
2018-07-22T11:57:58.743Z,417
2018-07-22T11:59:00.779Z,188
2018-07-22T12:00:03.388Z,413
2018-07-22T12:01:05.404Z,418
2018-07-22T12:02:07.423Z,429
2018-07-22T12:03:09.457Z,418
2018-07-22T12:04:11.471Z,413
2018-07-22T12:05:13.493Z,432
2018-07-22T12:06:15.536Z,444
2018-07-22T12:07:17.933Z,421
2018-07-22T12:08:20.189Z,403
2018-07-22T12:09:22.208Z,388
2018-07-22T12:10:24.231Z,399
2018-07-22T12:11:26.261Z,389
2018-07-22T12:12:28.601Z,410
2018-07-22T12:13:30.606Z,434
2018-07-22T12:14:32.622Z,440
2018-07-22T12:15:34.628Z,433
2018-07-22T12:16:37.038Z,448
2018-07-22T12:17:39.059Z,432
2018-07-22T12:18:41.073Z,443
2018-07-22T12:19:43.095Z,267
2018-07-22T12:20:45.121Z,151
2018-07-22T12:21:47.141Z,164
2018-07-22T12:22:49.169Z,131
2018-07-22T12:23:51.190Z,117
2018-07-22T12:24:53.207Z,114
2018-07-22T12:25:55.222Z,112
2018-07-22T12:26:57.249Z,111
2018-07-22T12:27:59.262Z,113
2018-07-22T12:29:01.601Z,117
2018-07-22T12:30:03.607Z,122
2018-07-22T12:31:05.621Z,138
2018-07-22T12:32:07.927Z,320
2018-07-22T12:33:09.954Z,208
2018-07-22T12:34:12.381Z,197
2018-07-22T12:35:14.424Z,236
2018-07-22T12:36:16.739Z,342
2018-07-22T12:37:18.755Z,377
2018-07-22T12:38:20.844Z,357
2018-07-22T12:39:22.865Z,236
2018-07-22T12:40:24.923Z,371
2018-07-22T12:41:26.897Z,382
2018-07-22T12:42:28.916Z,371
2018-07-22T12:43:30.933Z,383
2018-07-22T12:44:32.940Z,382
2018-07-22T12:45:35.262Z,364
2018-07-22T12:46:37.336Z,355
2018-07-22T12:47:39.300Z,355
2018-07-22T12:48:41.609Z,374
2018-07-22T12:49:43.901Z,385
2018-07-22T12:50:46.305Z,394
2018-07-22T12:51:48.333Z,390
2018-07-22T12:52:50.650Z,402
2018-07-22T12:53:52.745Z,388
2018-07-22T12:54:54.685Z,386
2018-07-22T12:55:56.695Z,383
2018-07-22T12:56:58.717Z,236
2018-07-22T12:58:00.738Z,361
2018-07-22T12:59:03.038Z,361
2018-07-22T13:00:05.618Z,392
2018-07-22T13:01:07.644Z,392
2018-07-22T13:02:09.663Z,376
2018-07-22T13:03:11.684Z,369
2018-07-22T13:04:13.718Z,362
2018-07-22T13:05:15.726Z,372
2018-07-22T13:06:17.753Z,285
2018-07-22T13:07:20.058Z,336
2018-07-22T13:08:22.078Z,306
2018-07-22T13:09:24.620Z,366
2018-07-22T13:10:26.964Z,340
2018-07-22T13:11:28.981Z,356
2018-07-22T13:12:30.998Z,351
2018-07-22T13:13:33.030Z,242
2018-07-22T13:14:35.324Z,368
2018-07-22T13:15:37.339Z,330
2018-07-22T13:16:39.359Z,342
2018-07-22T13:17:41.390Z,305
2018-07-22T13:18:43.407Z,379
2018-07-22T13:19:45.428Z,380
2018-07-22T13:20:47.742Z,371
2018-07-22T13:21:49.753Z,353
2018-07-22T13:22:51.771Z,391
2018-07-22T13:23:53.790Z,390
2018-07-22T13:24:56.101Z,360
2018-07-22T13:25:58.511Z,340
2018-07-22T13:27:00.528Z,366
2018-07-22T13:28:02.546Z,363
2018-07-22T13:29:04.561Z,365
2018-07-22T13:30:06.863Z,178
2018-07-22T13:31:08.894Z,387
2018-07-22T13:32:11.198Z,358
2018-07-22T13:33:13.217Z,142
2018-07-22T13:34:15.255Z,254
2018-07-22T13:35:17.560Z,121
2018-07-22T13:36:19.585Z,107
2018-07-22T13:37:22.285Z,99
2018-07-22T13:38:24.522Z,96
2018-07-22T13:39:26.327Z,98
2018-07-22T13:40:28.346Z,108
2018-07-22T13:41:30.374Z,116
2018-07-22T13:42:32.383Z,127
2018-07-22T13:43:34.415Z,118
2018-07-22T13:44:36.435Z,111
2018-07-22T13:45:38.451Z,108
2018-07-22T13:46:40.484Z,226
2018-07-22T13:47:42.501Z,91
2018-07-22T13:48:44.527Z,89
2018-07-22T13:49:46.546Z,92
2018-07-22T13:50:48.576Z,162
2018-07-22T13:51:50.592Z,272
2018-07-22T13:52:52.997Z,291
2018-07-22T13:53:55.016Z,290
2018-07-22T13:54:57.031Z,128
2018-07-22T13:55:59.061Z,118
2018-07-22T13:57:01.080Z,105
2018-07-22T13:58:03.771Z,98
2018-07-22T13:59:05.795Z,101
2018-07-22T14:00:07.821Z,110
2018-07-22T14:01:09.840Z,127
2018-07-22T14:02:11.857Z,168
2018-07-22T14:03:13.881Z,308
2018-07-22T14:04:15.902Z,340
2018-07-22T14:05:18.306Z,350
2018-07-22T14:06:20.323Z,339
2018-07-22T14:07:22.383Z,324
2018-07-22T14:08:24.650Z,322
2018-07-22T14:09:26.989Z,310
2018-07-22T14:10:29.016Z,256
2018-07-22T14:11:31.024Z,297
2018-07-22T14:12:33.046Z,280
2018-07-22T14:13:35.069Z,248
2018-07-22T14:14:37.096Z,103
2018-07-22T14:15:39.583Z,91
2018-07-22T14:16:41.483Z,81
2018-07-22T14:17:43.510Z,74
2018-07-22T14:18:45.877Z,70
2018-07-22T14:19:47.908Z,67
2018-07-22T14:20:50.576Z,67
2018-07-22T14:21:52.596Z,69
2018-07-22T14:22:54.998Z,74
2018-07-22T14:23:57.037Z,81
2018-07-22T14:24:59.602Z,86
2018-07-22T14:26:01.604Z,91
2018-07-22T14:27:03.623Z,94
2018-07-22T14:28:05.663Z,88
2018-07-22T14:29:08.042Z,87
2018-07-22T14:30:10.061Z,91
2018-07-22T14:31:12.374Z,101
2018-07-22T14:32:14.396Z,209
2018-07-22T14:33:16.418Z,245
2018-07-22T14:34:18.821Z,247
2018-07-22T14:35:20.845Z,124
2018-07-22T14:36:23.159Z,102
2018-07-22T14:37:25.176Z,86
2018-07-22T14:38:27.580Z,73
2018-07-22T14:39:29.596Z,65
2018-07-22T14:40:31.626Z,60
2018-07-22T14:41:34.031Z,56
2018-07-22T14:42:36.053Z,52
2018-07-22T14:43:38.069Z,50